Time;durP1;ratioP1;P1;durP2;ratioP2;P2;SDS_P1;SDS_P2;PMS_P1;PMS_P2;Temp;Humidity;BMP_temperature;BMP_pressure;BME280_temperature;BME280_humidity;BME280_pressure;Samples;Min_cycle;Max_cycle;Signal;HPM_P1;HPM_P2
2023/06/29 00:01:46;;;;;;;4.80;3.30;;;13.70;99.90;;;;;;4938636;29;20314;-78
2023/06/29 00:04:18;;;;;;;6.07;3.30;;;13.60;99.90;;;;;;4938393;29;20621;-79
2023/06/29 00:06:46;;;;;;;4.33;3.40;;;13.60;99.90;;;;;;4938887;29;20212;-80
2023/06/29 00:09:14;;;;;;;5.13;3.47;;;13.50;99.90;;;;;;4938635;29;20239;-78
2023/06/29 00:11:42;;;;;;;3.97;3.37;;;13.50;99.90;;;;;;4938903;29;20208;-78
2023/06/29 00:14:10;;;;;;;4.50;3.50;;;13.50;99.90;;;;;;4938177;29;20247;-80
2023/06/29 00:16:40;;;;;;;5.53;3.40;;;13.40;99.90;;;;;;4961407;28;20209;-79
2023/06/29 00:19:08;;;;;;;5.83;3.50;;;13.40;99.90;;;;;;4938042;29;20212;-80
2023/06/29 00:21:36;;;;;;;6.87;3.77;;;13.40;99.90;;;;;;4938141;29;20840;-80
2023/06/29 00:24:05;;;;;;;4.83;3.50;;;13.40;99.90;;;;;;4939828;29;20303;-76
2023/06/29 00:26:33;;;;;;;5.33;3.70;;;13.30;99.90;;;;;;4937968;29;20303;-77
2023/06/29 00:29:01;;;;;;;6.40;3.70;;;13.30;99.90;;;;;;4938449;29;20219;-77
2023/06/29 00:31:29;;;;;;;6.77;3.53;;;13.30;99.90;;;;;;4938333;29;20239;-80
2023/06/29 00:33:59;;;;;;;3.80;3.33;;;13.30;99.90;;;;;;4937501;29;20218;-79
2023/06/29 00:36:27;;;;;;;4.90;3.40;;;13.30;99.90;;;;;;4938007;29;20260;-79
2023/06/29 00:38:55;;;;;;;5.60;3.90;;;13.30;99.90;;;;;;4937944;29;20216;-79
2023/06/29 00:41:23;;;;;;;7.27;3.97;;;13.30;99.90;;;;;;4937658;29;20244;-76
2023/06/29 00:43:51;;;;;;;6.60;3.80;;;13.30;99.90;;;;;;4937267;29;20263;-76
2023/06/29 00:46:21;;;;;;;5.20;3.87;;;13.30;99.90;;;;;;4937451;29;20753;-78
2023/06/29 00:48:49;;;;;;;5.13;3.27;;;13.30;99.90;;;;;;4938546;29;20538;-79
2023/06/29 00:51:19;;;;;;;7.13;3.80;;;13.30;99.90;;;;;;4937472;29;20220;-77
2023/06/29 00:53:47;;;;;;;5.03;3.50;;;13.30;99.90;;;;;;4937465;29;20820;-77
2023/06/29 00:56:15;;;;;;;6.90;3.93;;;13.20;99.90;;;;;;4937867;29;20283;-77
2023/06/29 00:58:44;;;;;;;4.57;3.57;;;13.20;99.90;;;;;;4937867;29;20216;-80
2023/06/29 01:01:12;;;;;;;5.27;3.70;;;13.20;99.90;;;;;;4936609;29;20216;-76
2023/06/29 01:03:42;;;;;;;7.43;4.27;;;13.20;99.90;;;;;;4937008;28;20216;-79
2023/06/29 01:06:15;;;;;;;4.60;3.70;;;13.20;99.90;;;;;;4937414;29;20236;-75
2023/06/29 01:08:49;;;;;;;4.60;3.23;;;13.20;99.90;;;;;;4937727;29;20211;-79
2023/06/29 01:11:19;;;;;;;5.80;3.50;;;13.10;99.90;;;;;;4937614;29;20637;-80
2023/06/29 01:13:49;;;;;;;5.83;4.00;;;13.10;99.90;;;;;;4946662;28;20266;-79
2023/06/29 01:16:17;;;;;;;4.53;3.57;;;13.10;99.90;;;;;;4936811;28;20307;-79
2023/06/29 01:18:47;;;;;;;5.83;3.50;;;13.10;99.90;;;;;;4937287;29;20220;-78
2023/06/29 01:21:16;;;;;;;4.67;3.40;;;13.10;99.90;;;;;;4937341;29;20558;-80
2023/06/29 01:23:47;;;;;;;3.80;3.40;;;13.10;99.90;;;;;;4936576;29;20248;-78
2023/06/29 01:26:17;;;;;;;6.97;3.60;;;13.10;99.90;;;;;;4937225;29;20205;-80
2023/06/29 01:28:48;;;;;;;5.00;3.60;;;13.10;99.90;;;;;;4937267;29;20235;-80
2023/06/29 01:31:17;;;;;;;7.70;3.97;;;13.00;99.90;;;;;;4936912;29;20217;-80
2023/06/29 01:33:46;;;;;;;5.17;3.60;;;13.00;99.90;;;;;;4936443;29;20288;-78
2023/06/29 01:36:21;;;;;;;6.13;3.87;;;13.00;99.90;;;;;;4936909;29;20658;-78
2023/06/29 01:38:54;;;;;;;5.27;3.63;;;12.90;99.90;;;;;;4936755;29;20644;-78
2023/06/29 01:41:26;;;;;;;4.47;3.40;;;12.90;99.90;;;;;;4936951;29;20252;-79
2023/06/29 01:43:55;;;;;;;5.97;4.03;;;12.90;99.90;;;;;;4936595;29;20215;-80
2023/06/29 01:46:24;;;;;;;7.50;3.77;;;12.90;99.90;;;;;;4936804;29;20251;-80
2023/06/29 01:48:52;;;;;;;8.07;4.10;;;12.90;99.90;;;;;;4936660;29;20247;-79
2023/06/29 01:51:21;;;;;;;6.10;4.00;;;12.80;99.90;;;;;;4936368;29;20220;-79
2023/06/29 01:53:50;;;;;;;6.27;3.60;;;12.80;99.90;;;;;;4935954;29;20706;-78
2023/06/29 01:56:18;;;;;;;4.77;3.70;;;12.70;99.90;;;;;;4936447;29;20275;-80
2023/06/29 01:58:47;;;;;;;5.83;3.40;;;12.70;99.90;;;;;;4936329;29;20580;-79
2023/06/29 02:01:15;;;;;;;6.03;4.10;;;12.70;99.90;;;;;;4936293;29;20725;-80
2023/06/29 02:03:43;;;;;;;4.97;3.80;;;12.60;99.90;;;;;;4936147;29;20588;-78
2023/06/29 02:06:12;;;;;;;5.93;3.90;;;12.50;99.90;;;;;;4936396;29;20302;-78
2023/06/29 02:08:42;;;;;;;4.77;3.80;;;12.50;99.90;;;;;;4936326;29;20251;-78
2023/06/29 02:11:10;;;;;;;4.77;3.73;;;12.40;99.90;;;;;;4936402;29;20216;-80
2023/06/29 02:13:38;;;;;;;5.67;3.73;;;12.40;99.90;;;;;;4964927;28;20210;-80
2023/06/29 02:16:08;;;;;;;5.00;3.77;;;12.30;99.90;;;;;;4974713;28;20211;-77
2023/06/29 02:18:36;;;;;;;4.17;3.50;;;12.30;99.90;;;;;;4937447;28;20697;-79
2023/06/29 02:21:04;;;;;;;7.63;3.83;;;12.20;99.90;;;;;;4936243;29;20220;-81
2023/06/29 02:23:32;;;;;;;8.37;4.47;;;12.20;99.90;;;;;;4935450;29;20268;-81
2023/06/29 02:26:00;;;;;;;5.27;4.03;;;12.20;99.90;;;;;;4950941;29;20224;-80
2023/06/29 02:28:28;;;;;;;4.80;3.67;;;12.20;99.90;;;;;;4955174;29;20765;-78
2023/06/29 02:30:56;;;;;;;5.83;4.03;;;12.10;99.90;;;;;;4955347;29;20212;-79
2023/06/29 02:33:26;;;;;;;4.87;4.03;;;12.10;99.90;;;;;;4954587;29;20207;-80
2023/06/29 02:35:54;;;;;;;4.80;3.80;;;12.10;99.90;;;;;;4955477;28;20294;-75
2023/06/29 02:38:22;;;;;;;6.33;4.40;;;12.00;99.90;;;;;;4956606;29;20290;-80
2023/06/29 02:40:50;;;;;;;5.57;4.13;;;12.00;99.90;;;;;;4955284;28;20218;-79
2023/06/29 02:43:18;;;;;;;6.30;4.17;;;12.00;99.90;;;;;;4945526;29;20228;-80
2023/06/29 02:45:46;;;;;;;5.10;4.00;;;11.90;99.90;;;;;;4935845;29;20267;-80
2023/06/29 02:48:14;;;;;;;8.30;4.40;;;11.90;99.90;;;;;;4935549;29;20212;-79
2023/06/29 02:50:44;;;;;;;5.47;4.20;;;11.80;99.90;;;;;;4935572;29;20216;-79
2023/06/29 02:53:14;;;;;;;6.10;4.13;;;11.90;99.90;;;;;;4935374;29;20259;-79
2023/06/29 02:55:42;;;;;;;4.97;4.03;;;11.80;99.90;;;;;;4935766;29;20630;-79
2023/06/29 02:58:11;;;;;;;6.67;4.60;;;11.80;99.90;;;;;;4934897;29;20256;-79
2023/06/29 03:00:39;;;;;;;5.90;4.17;;;11.80;99.90;;;;;;4934986;29;20299;-76
2023/06/29 03:03:07;;;;;;;8.87;4.47;;;11.80;99.90;;;;;;4934742;29;20275;-79
2023/06/29 03:05:36;;;;;;;4.93;4.07;;;11.70;99.90;;;;;;4934923;29;20212;-80
2023/06/29 03:08:06;;;;;;;5.53;4.20;;;11.70;99.90;;;;;;4935327;29;20305;-78
2023/06/29 03:10:34;;;;;;;6.47;4.20;;;11.60;99.90;;;;;;4937715;28;20223;-77
2023/06/29 03:13:02;;;;;;;6.33;4.20;;;11.70;99.90;;;;;;4973480;28;20211;-79
2023/06/29 03:15:30;;;;;;;7.97;4.63;;;11.70;99.90;;;;;;4973607;28;20257;-77
2023/06/29 03:17:58;;;;;;;7.80;4.80;;;11.70;99.90;;;;;;4959094;28;20216;-76
2023/06/29 03:20:27;;;;;;;5.87;4.20;;;11.60;99.90;;;;;;4935247;29;20216;-80
2023/06/29 03:22:55;;;;;;;8.50;4.20;;;11.60;99.90;;;;;;4934918;29;20331;-81
2023/06/29 03:25:24;;;;;;;4.67;4.03;;;11.60;99.90;;;;;;4934453;29;20235;-78
2023/06/29 03:27:52;;;;;;;6.20;4.23;;;11.50;99.90;;;;;;4935218;29;20311;-79
2023/06/29 03:30:21;;;;;;;4.97;3.90;;;11.50;99.90;;;;;;4935462;29;20243;-77
2023/06/29 03:32:49;;;;;;;5.00;4.23;;;11.50;99.90;;;;;;4934608;29;20734;-79
2023/06/29 03:35:17;;;;;;;5.83;4.30;;;11.50;99.90;;;;;;4934396;29;20278;-79
2023/06/29 03:37:45;;;;;;;5.17;4.27;;;11.50;99.90;;;;;;4934821;29;20208;-80
2023/06/29 03:40:13;;;;;;;7.43;4.10;;;11.50;99.90;;;;;;4935112;29;20262;-80
2023/06/29 03:42:43;;;;;;;4.60;4.10;;;11.50;99.90;;;;;;4934829;29;20228;-78
2023/06/29 03:45:11;;;;;;;5.23;3.93;;;11.50;99.90;;;;;;4950005;28;20241;-78
2023/06/29 03:47:39;;;;;;;6.90;4.17;;;11.50;99.90;;;;;;4973560;28;20261;-77
2023/06/29 03:50:08;;;;;;;5.87;4.30;;;11.60;99.90;;;;;;4973811;28;20214;-80
2023/06/29 03:52:36;;;;;;;5.80;4.40;;;11.50;99.90;;;;;;4971189;28;20207;-81
2023/06/29 03:55:05;;;;;;;5.83;4.30;;;11.60;99.90;;;;;;4934949;29;20239;-79
2023/06/29 03:57:33;;;;;;;5.57;4.50;;;11.50;99.90;;;;;;4934846;29;20204;-81
2023/06/29 04:00:03;;;;;;;6.27;4.30;;;11.60;99.90;;;;;;4934785;29;20244;-74
2023/06/29 04:02:32;;;;;;;6.63;4.10;;;11.60;99.90;;;;;;4933939;29;20208;-77
2023/06/29 04:05:00;;;;;;;6.63;4.30;;;11.60;99.90;;;;;;4934382;29;20669;-76
2023/06/29 04:07:28;;;;;;;6.50;4.07;;;11.70;99.90;;;;;;4934756;29;20622;-75
2023/06/29 04:09:56;;;;;;;7.67;4.10;;;11.70;99.90;;;;;;4946455;28;20207;-77
2023/06/29 04:12:24;;;;;;;5.30;4.20;;;11.70;99.90;;;;;;4934324;29;20236;-77
2023/06/29 04:14:52;;;;;;;4.80;3.93;;;11.80;99.90;;;;;;4934591;29;20273;-80
2023/06/29 04:17:22;;;;;;;6.10;4.50;;;11.80;99.90;;;;;;4934725;29;20212;-76
2023/06/29 04:19:50;;;;;;;6.80;4.30;;;11.90;99.90;;;;;;4934580;29;20224;-81
2023/06/29 04:22:18;;;;;;;7.13;4.20;;;11.90;99.90;;;;;;4934389;29;20224;-80
2023/06/29 04:24:46;;;;;;;7.33;4.63;;;11.90;99.90;;;;;;4934541;29;20232;-79
2023/06/29 04:27:16;;;;;;;7.03;4.93;;;12.00;99.90;;;;;;4934314;29;20738;-79
2023/06/29 04:29:44;;;;;;;7.63;4.47;;;12.10;99.90;;;;;;4934765;29;20220;-77
2023/06/29 04:32:12;;;;;;;5.57;4.40;;;12.20;99.90;;;;;;4933882;29;20212;-75
2023/06/29 04:34:41;;;;;;;5.40;4.10;;;12.20;99.90;;;;;;4934409;29;20284;-80
2023/06/29 04:37:10;;;;;;;6.20;4.03;;;12.30;99.90;;;;;;4936525;29;20235;-74
2023/06/29 04:39:38;;;;;;;5.03;3.80;;;12.30;99.90;;;;;;4937772;29;20263;-76
2023/06/29 04:42:12;;;;;;;5.43;4.57;;;12.40;99.90;;;;;;4937783;28;20266;-76
2023/06/29 04:44:44;;;;;;;6.53;4.40;;;12.50;99.90;;;;;;4937633;29;20714;-73
2023/06/29 04:47:12;;;;;;;6.13;4.20;;;12.50;99.90;;;;;;4944351;29;20277;-74
2023/06/29 04:49:44;;;;;;;6.17;4.03;;;12.60;99.90;;;;;;4956760;29;20207;-73
2023/06/29 04:52:12;;;;;;;5.43;3.80;;;12.70;99.90;;;;;;4956760;28;20242;-80
2023/06/29 04:54:40;;;;;;;4.27;3.30;;;12.80;99.90;;;;;;4956530;29;20215;-75
2023/06/29 04:57:08;;;;;;;6.87;3.57;;;12.90;99.90;;;;;;4946890;28;20216;-75
2023/06/29 04:59:36;;;;;;;6.40;3.60;;;12.90;99.90;;;;;;4937403;29;20699;-78
2023/06/29 05:02:05;;;;;;;5.40;3.30;;;13.00;99.90;;;;;;4937493;29;20212;-78
2023/06/29 05:04:33;;;;;;;6.93;3.50;;;13.10;99.90;;;;;;4937352;29;20569;-79
2023/06/29 05:07:03;;;;;;;4.80;3.40;;;13.20;99.90;;;;;;4937773;29;20252;-76
2023/06/29 05:09:31;;;;;;;4.77;3.40;;;13.30;99.90;;;;;;4968381;28;20218;-79
2023/06/29 05:11:59;;;;;;;5.80;3.30;;;13.30;99.90;;;;;;4975861;28;20591;-81
2023/06/29 05:14:27;;;;;;;4.33;3.23;;;13.40;99.90;;;;;;4964294;28;20209;-79
2023/06/29 05:16:57;;;;;;;5.80;3.30;;;13.50;99.90;;;;;;4937647;29;20283;-79
2023/06/29 05:19:25;;;;;;;4.47;3.10;;;13.60;99.90;;;;;;4937771;29;20208;-75
2023/06/29 05:21:53;;;;;;;5.23;3.40;;;13.80;99.90;;;;;;4937131;29;20216;-76
2023/06/29 05:24:23;;;;;;;5.07;3.30;;;13.80;99.90;;;;;;4936938;29;20224;-80
2023/06/29 05:26:51;;;;;;;3.50;2.93;;;14.00;99.90;;;;;;4937045;29;20726;-78
2023/06/29 05:29:19;;;;;;;5.57;3.40;;;14.10;99.90;;;;;;4937477;29;20219;-78
2023/06/29 05:31:47;;;;;;;6.27;3.40;;;14.20;99.90;;;;;;4937025;29;20208;-77
2023/06/29 05:34:15;;;;;;;6.40;3.43;;;14.30;99.90;;;;;;4941425;29;20232;-78
2023/06/29 05:36:43;;;;;;;7.50;3.40;;;14.40;99.90;;;;;;4938188;29;20236;-79
2023/06/29 05:39:11;;;;;;;5.23;3.23;;;14.50;99.90;;;;;;4937324;29;20264;-76
2023/06/29 05:41:41;;;;;;;4.77;3.13;;;14.70;99.90;;;;;;4936858;29;20205;-80
2023/06/29 05:44:09;;;;;;;6.87;3.30;;;14.80;99.90;;;;;;4936453;29;20279;-77
2023/06/29 05:46:37;;;;;;;4.27;2.70;;;15.00;99.90;;;;;;4937021;29;20216;-81
2023/06/29 05:49:06;;;;;;;7.63;2.70;;;15.20;99.90;;;;;;4936242;29;20220;-74
2023/06/29 05:51:34;;;;;;;4.33;2.73;;;15.50;99.90;;;;;;4936805;29;20220;-77
2023/06/29 05:54:04;;;;;;;3.77;2.80;;;15.90;99.90;;;;;;4937640;29;20307;-74
2023/06/29 05:56:32;;;;;;;4.57;2.60;;;16.70;99.90;;;;;;4937223;29;20334;-75
2023/06/29 05:59:02;;;;;;;4.27;2.20;;;17.80;99.90;;;;;;4936374;29;20204;-76
2023/06/29 06:01:30;;;;;;;3.43;2.30;;;19.30;99.90;;;;;;4936653;29;20243;-76
2023/06/29 06:03:58;;;;;;;3.37;2.30;;;20.60;99.90;;;;;;4936597;29;20216;-78
2023/06/29 06:06:30;;;;;;;3.47;2.00;;;21.90;99.90;;;;;;4940759;28;20307;-78
2023/06/29 06:08:58;;;;;;;4.10;2.13;;;22.90;96.80;;;;;;4962489;28;20208;-77
2023/06/29 06:11:26;;;;;;;4.17;2.23;;;23.20;95.00;;;;;;4936383;29;20223;-77
2023/06/29 06:13:55;;;;;;;5.83;2.20;;;24.20;92.80;;;;;;4935924;29;20619;-77
2023/06/29 06:16:25;;;;;;;4.30;2.10;;;25.00;90.10;;;;;;4936698;29;20211;-77
2023/06/29 06:18:53;;;;;;;3.25;2.08;;;25.80;83.20;;;;;;4936314;29;20212;-77
2023/06/29 06:21:23;;;;;;;3.80;2.03;;;26.00;79.00;;;;;;4936115;29;20303;-77
2023/06/29 06:23:52;;;;;;;3.70;2.20;;;26.50;74.40;;;;;;4935584;29;20220;-79
2023/06/29 06:26:20;;;;;;;3.20;1.92;;;26.30;75.50;;;;;;4936156;29;20263;-77
2023/06/29 06:28:48;;;;;;;6.30;2.30;;;26.70;74.40;;;;;;4936380;29;20247;-77
2023/06/29 06:31:17;;;;;;;3.60;2.13;;;27.30;69.70;;;;;;4936415;29;20273;-76
2023/06/29 06:34:02;;;;;;;3.22;2.10;;;26.60;66.90;;;;;;4935600;29;20223;-77
2023/06/29 06:36:31;;;;;;;5.60;2.00;;;26.90;67.50;;;;;;4935912;29;20224;-77
2023/06/29 06:38:59;;;;;;;3.65;2.30;;;26.90;66.90;;;;;;4936044;29;20204;-77
2023/06/29 06:41:27;;;;;;;3.58;1.80;;;27.10;65.40;;;;;;4935955;29;20224;-78
2023/06/29 06:43:57;;;;;;;3.70;1.92;;;27.30;63.20;;;;;;4935612;29;20251;-77
2023/06/29 06:46:25;;;;;;;5.88;2.20;;;26.90;64.70;;;;;;4935844;29;20224;-76
2023/06/29 06:48:53;;;;;;;5.30;2.25;;;27.30;62.00;;;;;;4935811;29;20212;-78
2023/06/29 06:51:25;;;;;;;3.42;2.30;;;27.40;60.30;;;;;;4935677;29;20303;-77
2023/06/29 06:53:53;;;;;;;2.67;1.83;;;27.70;60.10;;;;;;4935035;29;20220;-77
2023/06/29 06:56:22;;;;;;;3.80;2.05;;;28.30;57.40;;;;;;4935594;29;20232;-77
2023/06/29 06:58:50;;;;;;;3.58;2.05;;;28.50;55.70;;;;;;4935636;29;20283;-79
2023/06/29 07:01:21;;;;;;;4.40;2.00;;;28.90;53.90;;;;;;4935139;29;20216;-77
2023/06/29 07:03:51;;;;;;;3.20;2.15;;;28.70;53.20;;;;;;4935325;29;20200;-78
2023/06/29 07:06:19;;;;;;;3.53;1.90;;;28.90;53.40;;;;;;4960303;28;20206;-78
2023/06/29 07:08:49;;;;;;;3.30;2.10;;;29.40;52.30;;;;;;4962050;28;20303;-78
2023/06/29 07:11:17;;;;;;;2.70;1.80;;;29.90;51.50;;;;;;4935570;29;20343;-76
2023/06/29 07:13:45;;;;;;;2.65;1.90;;;30.10;47.70;;;;;;4934722;29;20259;-77
2023/06/29 07:16:13;;;;;;;4.13;1.95;;;29.80;49.60;;;;;;4935135;29;20228;-77
2023/06/29 07:19:01;;;;;;;4.20;1.95;;;29.70;49.60;;;;;;4935407;29;20208;-77
2023/06/29 07:21:50;;;;;;;2.60;1.92;;;30.50;47.30;;;;;;4934806;29;20566;-78
2023/06/29 07:24:24;;;;;;;4.80;2.03;;;31.10;45.20;;;;;;4935223;29;20247;-77
2023/06/29 07:26:52;;;;;;;3.03;1.73;;;30.80;44.60;;;;;;4935364;29;20188;-79
2023/06/29 07:29:21;;;;;;;4.30;2.03;;;31.40;41.50;;;;;;4935420;29;20207;-79
2023/06/29 07:31:49;;;;;;;5.25;2.20;;;31.70;41.90;;;;;;4934698;29;20208;-77
2023/06/29 07:34:22;;;;;;;2.42;1.77;;;31.50;39.70;;;;;;4935138;29;20581;-77
2023/06/29 07:36:50;;;;;;;2.58;1.70;;;31.50;41.80;;;;;;4935146;29;20236;-79
2023/06/29 07:39:19;;;;;;;4.97;1.90;;;30.90;40.60;;;;;;4935048;29;20220;-78
2023/06/29 07:41:49;;;;;;;3.50;1.83;;;31.60;40.70;;;;;;4934799;29;20239;-77
2023/06/29 07:44:17;;;;;;;2.35;1.90;;;31.20;38.80;;;;;;4934771;29;20682;-77
2023/06/29 07:46:46;;;;;;;3.67;1.90;;;31.20;40.50;;;;;;4935070;29;20219;-77
2023/06/29 07:49:14;;;;;;;5.28;2.10;;;30.80;40.60;;;;;;4934392;29;20220;-80
2023/06/29 07:51:42;;;;;;;3.15;1.92;;;31.40;40.80;;;;;;4953766;29;20223;-78
2023/06/29 07:54:10;;;;;;;3.58;2.10;;;32.40;40.50;;;;;;4953839;29;20258;-78
2023/06/29 07:56:38;;;;;;;5.43;2.00;;;33.10;39.90;;;;;;4953628;29;20271;-77
2023/06/29 07:59:11;;;;;;;3.03;1.80;;;32.20;38.00;;;;;;4945566;29;20236;-78
2023/06/29 08:01:39;;;;;;;3.05;2.00;;;32.80;36.10;;;;;;4934864;29;20279;-79
2023/06/29 08:04:07;;;;;;;4.93;1.80;;;32.90;37.70;;;;;;4946576;28;20602;-77
2023/06/29 08:06:41;;;;;;;4.82;2.05;;;33.60;35.00;;;;;;4957943;28;20296;-78
2023/06/29 08:09:13;;;;;;;4.25;2.30;;;33.50;33.70;;;;;;4934900;29;20219;-77
2023/06/29 08:11:41;;;;;;;3.63;2.10;;;33.60;33.30;;;;;;4936047;29;20216;-79
2023/06/29 08:14:10;;;;;;;3.33;2.03;;;33.10;36.30;;;;;;4937819;29;20266;-79
2023/06/29 08:16:38;;;;;;;4.70;2.10;;;33.60;33.00;;;;;;4938117;29;20232;-78
2023/06/29 08:19:07;;;;;;;3.33;2.00;;;33.40;35.10;;;;;;4938611;29;20212;-76
2023/06/29 08:21:35;;;;;;;3.47;1.98;;;33.60;31.20;;;;;;4938530;29;20246;-79
2023/06/29 08:24:04;;;;;;;2.35;1.83;;;33.00;32.40;;;;;;4937542;29;20223;-78
2023/06/29 08:26:32;;;;;;;6.13;2.10;;;33.30;30.50;;;;;;4938263;29;20212;-78
2023/06/29 08:29:00;;;;;;;3.33;2.22;;;33.40;30.20;;;;;;4937970;29;20578;-78
2023/06/29 08:31:29;;;;;;;3.97;2.05;;;33.40;30.90;;;;;;4938224;29;20633;-77
2023/06/29 08:33:57;;;;;;;5.32;2.20;;;33.60;30.70;;;;;;4937469;29;20215;-80
2023/06/29 08:36:29;;;;;;;3.13;2.00;;;33.80;29.00;;;;;;4937876;29;20327;-77
2023/06/29 08:38:58;;;;;;;5.35;2.22;;;32.90;31.40;;;;;;4937950;29;20216;-78
2023/06/29 08:41:26;;;;;;;2.65;2.33;;;33.20;29.50;;;;;;4937825;29;20212;-77
2023/06/29 08:43:54;;;;;;;4.10;1.95;;;33.00;28.70;;;;;;4937560;29;20260;-76
2023/06/29 08:46:24;;;;;;;3.28;1.88;;;33.20;27.90;;;;;;4938202;29;20663;-79
2023/06/29 08:48:54;;;;;;;2.78;1.90;;;33.30;28.60;;;;;;4938250;29;20212;-78
2023/06/29 08:51:24;;;;;;;4.00;1.95;;;33.30;27.40;;;;;;4937522;29;20264;-76
2023/06/29 08:53:53;;;;;;;5.20;2.10;;;32.50;29.10;;;;;;4937257;29;20589;-76
2023/06/29 08:56:24;;;;;;;5.35;2.05;;;32.80;29.10;;;;;;4937434;29;20665;-79
2023/06/29 08:58:53;;;;;;;4.05;2.10;;;33.40;28.60;;;;;;4937776;29;20608;-79
2023/06/29 09:01:21;;;;;;;2.95;1.83;;;34.10;24.60;;;;;;4938180;29;20247;-75
2023/06/29 09:03:51;;;;;;;3.28;1.92;;;34.40;24.50;;;;;;4968322;28;20219;-78
2023/06/29 09:06:23;;;;;;;2.80;1.92;;;34.60;25.10;;;;;;4976057;28;20302;-77
2023/06/29 09:08:54;;;;;;;4.22;2.03;;;34.20;24.50;;;;;;4955763;28;20212;-78
2023/06/29 09:11:23;;;;;;;5.72;2.15;;;34.70;23.20;;;;;;4937186;29;20707;-78
2023/06/29 09:13:51;;;;;;;3.85;1.92;;;34.50;22.90;;;;;;4937009;29;20581;-76
2023/06/29 09:16:21;;;;;;;4.07;2.20;;;34.30;23.80;;;;;;4936739;29;20276;-78
2023/06/29 09:18:54;;;;;;;3.15;1.90;;;34.60;24.10;;;;;;4937123;29;20216;-77
2023/06/29 09:21:25;;;;;;;3.17;2.10;;;34.50;24.60;;;;;;4937132;29;20757;-77
2023/06/29 09:23:57;;;;;;;4.95;2.13;;;33.30;23.80;;;;;;4936035;29;20252;-77
2023/06/29 09:26:28;;;;;;;4.35;2.00;;;33.20;24.20;;;;;;4937370;29;20264;-79
2023/06/29 09:29:00;;;;;;;3.97;2.10;;;33.30;24.30;;;;;;4937062;28;20216;-77
2023/06/29 09:31:32;;;;;;;3.20;1.70;;;33.90;23.20;;;;;;4936885;29;20211;-78
2023/06/29 09:34:17;;;;;;;4.03;2.13;;;34.00;22.60;;;;;;4936745;29;20219;-79
2023/06/29 09:36:49;;;;;;;2.47;1.90;;;34.20;23.60;;;;;;4936913;29;20543;-79
2023/06/29 09:39:18;;;;;;;4.72;1.90;;;34.10;24.10;;;;;;4937137;29;20221;-79
2023/06/29 09:41:47;;;;;;;3.92;2.10;;;33.00;22.40;;;;;;4937032;29;20216;-81
2023/06/29 09:44:19;;;;;;;5.07;1.92;;;34.00;22.90;;;;;;4938482;29;20244;-79
2023/06/29 09:46:47;;;;;;;4.57;2.00;;;33.90;21.80;;;;;;4937147;29;20192;-79
2023/06/29 09:49:45;;;;;;;4.25;1.75;;;34.00;20.80;;;;;;4936620;29;20219;-79
2023/06/29 09:52:16;;;;;;;3.53;1.92;;;34.80;19.30;;;;;;4936040;29;20212;-77
2023/06/29 09:54:45;;;;;;;2.55;1.92;;;33.60;21.00;;;;;;4936288;29;20679;-76
2023/06/29 09:57:13;;;;;;;4.10;1.90;;;33.90;21.90;;;;;;4936511;29;20236;-76
2023/06/29 09:59:44;;;;;;;2.25;1.80;;;33.90;20.20;;;;;;4936640;29;20287;-78
2023/06/29 10:02:13;;;;;;;2.38;1.70;;;33.70;20.00;;;;;;4962775;28;20210;-76
2023/06/29 10:04:42;;;;;;;3.22;1.70;;;33.90;21.80;;;;;;4974950;28;20644;-77
2023/06/29 10:07:16;;;;;;;3.33;2.08;;;35.10;20.00;;;;;;4974758;28;20242;-77
2023/06/29 10:09:48;;;;;;;2.10;1.80;;;34.70;18.70;;;;;;4945557;28;20215;-80
2023/06/29 10:12:18;;;;;;;4.78;1.83;;;34.00;18.90;;;;;;4936238;29;20248;-76
2023/06/29 10:14:47;;;;;;;3.00;1.83;;;33.60;19.20;;;;;;4936470;29;20224;-76
2023/06/29 10:17:20;;;;;;;2.90;1.70;;;33.00;18.90;;;;;;4935842;29;20687;-76
2023/06/29 10:19:51;;;;;;;3.33;1.98;;;33.60;20.40;;;;;;4936555;29;20196;-78
2023/06/29 10:22:23;;;;;;;1.83;1.63;;;33.80;20.60;;;;;;4936641;29;20216;-79
2023/06/29 10:24:54;;;;;;;3.97;1.90;;;34.50;20.30;;;;;;4936805;29;20220;-77
2023/06/29 10:27:25;;;;;;;4.43;2.08;;;34.10;18.60;;;;;;4937680;29;20651;-78
2023/06/29 10:29:54;;;;;;;3.53;1.75;;;33.60;21.60;;;;;;4936565;29;20239;-77
2023/06/29 10:32:32;;;;;;;2.75;1.80;;;34.00;21.30;;;;;;4936199;29;20251;-77
2023/06/29 10:35:01;;;;;;;2.80;1.90;;;34.80;19.90;;;;;;4935179;29;20579;-78
2023/06/29 10:37:34;;;;;;;2.92;1.98;;;33.30;20.80;;;;;;4936349;29;20291;-77
2023/06/29 10:40:05;;;;;;;2.88;1.83;;;33.50;21.40;;;;;;4935675;29;20212;-78
2023/06/29 10:42:54;;;;;;;3.28;2.00;;;34.10;20.90;;;;;;4935563;29;20255;-78
2023/06/29 10:45:33;;;;;;;3.67;1.98;;;33.60;19.70;;;;;;4935580;29;20267;-76
2023/06/29 10:48:06;;;;;;;3.25;2.13;;;34.50;20.30;;;;;;4935571;29;20247;-75
2023/06/29 10:50:43;;;;;;;3.08;1.77;;;33.60;18.90;;;;;;4935942;29;20212;-76
2023/06/29 10:53:14;;;;;;;3.13;1.98;;;34.30;20.10;;;;;;4934888;28;20218;-76
2023/06/29 10:55:50;;;;;;;3.05;1.70;;;34.20;21.30;;;;;;4935596;29;20208;-77
2023/06/29 10:58:23;;;;;;;2.92;1.80;;;34.00;21.50;;;;;;4935703;29;20310;-77
2023/06/29 11:00:52;;;;;;;4.45;1.92;;;34.40;20.90;;;;;;4962618;28;20218;-77
2023/06/29 11:03:22;;;;;;;2.80;1.90;;;34.20;20.80;;;;;;4973652;28;20293;-76
2023/06/29 11:05:51;;;;;;;2.20;1.80;;;33.60;20.50;;;;;;4982460;28;20230;-76
2023/06/29 11:08:22;;;;;;;2.67;1.85;;;33.50;21.40;;;;;;4974011;28;20214;-76
2023/06/29 11:10:52;;;;;;;3.58;1.67;;;33.60;20.60;;;;;;4936502;29;20238;-76
2023/06/29 11:13:21;;;;;;;3.65;1.83;;;33.30;22.30;;;;;;4935090;29;20220;-75
2023/06/29 11:15:54;;;;;;;5.03;2.13;;;33.50;21.00;;;;;;4935330;29;20228;-79
2023/06/29 11:18:22;;;;;;;4.47;2.00;;;33.30;19.90;;;;;;4935255;29;20239;-77
2023/06/29 11:20:51;;;;;;;2.30;1.80;;;32.50;21.20;;;;;;4936261;29;20208;-75
2023/06/29 11:23:19;;;;;;;3.78;1.90;;;32.40;23.90;;;;;;4934869;29;20307;-77
2023/06/29 11:25:48;;;;;;;3.53;1.90;;;31.90;23.20;;;;;;4935041;29;20212;-77
2023/06/29 11:28:17;;;;;;;4.18;1.83;;;31.10;22.60;;;;;;4935391;29;20256;-75
2023/06/29 11:30:45;;;;;;;2.67;1.80;;;30.60;22.20;;;;;;4935211;29;20216;-75
2023/06/29 11:33:21;;;;;;;5.25;1.85;;;31.10;24.60;;;;;;4934678;29;20192;-74
2023/06/29 11:36:09;;;;;;;3.47;1.98;;;31.30;23.70;;;;;;4935073;29;20232;-76
2023/06/29 11:38:38;;;;;;;3.97;1.70;;;30.80;22.80;;;;;;4935101;29;20232;-76
2023/06/29 11:41:07;;;;;;;2.33;1.70;;;30.40;24.20;;;;;;4934820;29;20267;-76
2023/06/29 11:43:36;;;;;;;4.90;1.90;;;30.00;25.30;;;;;;4935095;29;20216;-74
2023/06/29 11:46:04;;;;;;;3.33;2.00;;;30.40;26.80;;;;;;4934146;28;20559;-77
2023/06/29 11:48:32;;;;;;;5.20;2.00;;;30.50;25.00;;;;;;4934856;29;20212;-75
2023/06/29 11:51:01;;;;;;;2.47;1.80;;;30.50;24.30;;;;;;4935175;29;20263;-74
2023/06/29 11:53:30;;;;;;;4.73;1.83;;;29.80;23.80;;;;;;4934501;29;20215;-75
2023/06/29 11:55:58;;;;;;;3.40;1.83;;;29.50;26.30;;;;;;4935067;29;20295;-78
2023/06/29 11:58:34;;;;;;;4.70;1.90;;;29.60;27.60;;;;;;4945846;28;20223;-78
2023/06/29 12:01:02;;;;;;;4.27;2.10;;;29.70;26.00;;;;;;4973395;28;20582;-75
2023/06/29 12:03:31;;;;;;;7.33;2.10;;;29.90;26.40;;;;;;4963017;28;20731;-74
2023/06/29 12:06:01;;;;;;;2.27;1.87;;;29.90;27.30;;;;;;4934577;29;20303;-77
2023/06/29 12:08:38;;;;;;;3.93;1.90;;;30.50;26.10;;;;;;4934534;29;20208;-77
2023/06/29 12:11:07;;;;;;;3.83;1.97;;;30.00;26.30;;;;;;4935055;29;20212;-77
2023/06/29 12:13:45;;;;;;;3.50;1.80;;;29.90;26.20;;;;;;4934227;29;20216;-78
2023/06/29 12:16:13;;;;;;;3.43;2.00;;;29.30;26.10;;;;;;4934545;29;20224;-74
2023/06/29 12:18:44;;;;;;;3.20;2.07;;;29.60;25.20;;;;;;4934654;29;20331;-79
2023/06/29 12:21:18;;;;;;;5.33;2.00;;;29.60;25.80;;;;;;4934246;29;20899;-75
2023/06/29 12:23:47;;;;;;;6.23;2.10;;;29.90;26.00;;;;;;4934366;29;20211;-75
2023/06/29 12:26:16;;;;;;;5.03;2.03;;;29.90;25.80;;;;;;4934901;29;20232;-74
2023/06/29 12:28:45;;;;;;;6.23;2.00;;;29.90;26.00;;;;;;4934843;29;20205;-75
2023/06/29 12:31:14;;;;;;;3.63;1.67;;;29.90;25.50;;;;;;4948755;29;20247;-76
2023/06/29 12:33:42;;;;;;;3.93;2.00;;;30.10;26.30;;;;;;4953419;28;20215;-77
2023/06/29 12:36:10;;;;;;;3.20;2.13;;;29.90;24.50;;;;;;4953475;28;20240;-75
2023/06/29 12:38:38;;;;;;;2.27;1.80;;;29.20;24.10;;;;;;4953493;29;20640;-75
2023/06/29 12:41:06;;;;;;;3.13;2.00;;;29.20;26.90;;;;;;4936345;28;20618;-79
2023/06/29 12:43:34;;;;;;;2.90;1.80;;;29.10;25.10;;;;;;4934192;29;20223;-74
2023/06/29 12:46:04;;;;;;;3.00;2.00;;;29.50;27.10;;;;;;4934229;29;20275;-76
2023/06/29 12:48:32;;;;;;;3.87;1.97;;;29.40;26.20;;;;;;4934248;29;20259;-77
2023/06/29 12:51:00;;;;;;;2.00;1.60;;;29.80;26.40;;;;;;4934453;29;20267;-79
2023/06/29 12:53:28;;;;;;;2.40;1.70;;;30.00;25.40;;;;;;4933880;29;20227;-76
2023/06/29 12:55:56;;;;;;;3.80;2.13;;;30.20;25.30;;;;;;4934424;29;20271;-77
2023/06/29 12:58:25;;;;;;;6.07;2.03;;;30.00;25.10;;;;;;4956521;28;20231;-74
2023/06/29 13:00:53;;;;;;;2.40;1.70;;;29.90;26.00;;;;;;4937961;29;20259;-74